sensor_id;sensor_type;location;lat;lon;timestamp;P1;durP1;ratioP1;P2;durP2;ratioP2
13329;SDS011;6734;48.638;8.896;2022-12-07T00:02:22;9.27;;;5.33;;
13329;SDS011;6734;48.638;8.896;2022-12-07T00:04:48;8.87;;;5.47;;
13329;SDS011;6734;48.638;8.896;2022-12-07T00:07:14;10.97;;;6.70;;
13329;SDS011;6734;48.638;8.896;2022-12-07T00:09:40;9.90;;;6.17;;
13329;SDS011;6734;48.638;8.896;2022-12-07T00:12:06;9.60;;;6.03;;
13329;SDS011;6734;48.638;8.896;2022-12-07T00:14:32;10.63;;;6.77;;
13329;SDS011;6734;48.638;8.896;2022-12-07T00:16:58;11.53;;;6.70;;
13329;SDS011;6734;48.638;8.896;2022-12-07T00:19:25;11.20;;;6.23;;
13329;SDS011;6734;48.638;8.896;2022-12-07T00:21:50;9.03;;;6.20;;
13329;SDS011;6734;48.638;8.896;2022-12-07T00:24:16;9.03;;;5.63;;
13329;SDS011;6734;48.638;8.896;2022-12-07T00:26:42;12.93;;;6.07;;
13329;SDS011;6734;48.638;8.896;2022-12-07T00:29:18;10.97;;;6.50;;
13329;SDS011;6734;48.638;8.896;2022-12-07T00:31:46;10.27;;;6.63;;
13329;SDS011;6734;48.638;8.896;2022-12-07T00:34:14;11.80;;;6.93;;
13329;SDS011;6734;48.638;8.896;2022-12-07T00:36:40;12.43;;;7.13;;
13329;SDS011;6734;48.638;8.896;2022-12-07T00:39:05;10.50;;;6.53;;
13329;SDS011;6734;48.638;8.896;2022-12-07T00:41:31;15.87;;;7.63;;
13329;SDS011;6734;48.638;8.896;2022-12-07T00:43:57;13.87;;;7.50;;
13329;SDS011;6734;48.638;8.896;2022-12-07T00:46:23;10.80;;;6.90;;
13329;SDS011;6734;48.638;8.896;2022-12-07T00:48:49;13.93;;;7.50;;
13329;SDS011;6734;48.638;8.896;2022-12-07T00:51:17;13.73;;;6.93;;
13329;SDS011;6734;48.638;8.896;2022-12-07T00:53:45;11.33;;;6.20;;
13329;SDS011;6734;48.638;8.896;2022-12-07T00:56:14;10.53;;;6.97;;
13329;SDS011;6734;48.638;8.896;2022-12-07T00:58:42;9.80;;;6.37;;
13329;SDS011;6734;48.638;8.896;2022-12-07T01:01:09;11.70;;;6.87;;
13329;SDS011;6734;48.638;8.896;2022-12-07T01:03:35;10.47;;;6.77;;
13329;SDS011;6734;48.638;8.896;2022-12-07T01:06:03;10.60;;;6.20;;
13329;SDS011;6734;48.638;8.896;2022-12-07T01:08:29;10.67;;;6.33;;
13329;SDS011;6734;48.638;8.896;2022-12-07T01:10:59;10.63;;;7.00;;
13329;SDS011;6734;48.638;8.896;2022-12-07T01:13:26;8.77;;;5.87;;
13329;SDS011;6734;48.638;8.896;2022-12-07T01:15:55;9.80;;;5.67;;
13329;SDS011;6734;48.638;8.896;2022-12-07T01:18:22;13.73;;;7.50;;
13329;SDS011;6734;48.638;8.896;2022-12-07T01:20:56;10.60;;;7.07;;
13329;SDS011;6734;48.638;8.896;2022-12-07T01:23:22;9.13;;;6.27;;
13329;SDS011;6734;48.638;8.896;2022-12-07T01:25:53;10.53;;;6.40;;
13329;SDS011;6734;48.638;8.896;2022-12-07T01:28:19;10.90;;;6.53;;
13329;SDS011;6734;48.638;8.896;2022-12-07T01:30:53;9.83;;;6.20;;
13329;SDS011;6734;48.638;8.896;2022-12-07T01:33:20;10.37;;;6.70;;
13329;SDS011;6734;48.638;8.896;2022-12-07T01:35:46;11.13;;;6.50;;
13329;SDS011;6734;48.638;8.896;2022-12-07T01:38:12;9.80;;;6.63;;
13329;SDS011;6734;48.638;8.896;2022-12-07T01:40:38;11.90;;;6.77;;
13329;SDS011;6734;48.638;8.896;2022-12-07T01:43:07;10.27;;;6.70;;
13329;SDS011;6734;48.638;8.896;2022-12-07T01:45:42;11.97;;;6.63;;
13329;SDS011;6734;48.638;8.896;2022-12-07T01:48:08;8.33;;;5.73;;
13329;SDS011;6734;48.638;8.896;2022-12-07T01:50:35;8.30;;;4.83;;
13329;SDS011;6734;48.638;8.896;2022-12-07T01:53:03;9.30;;;5.57;;
13329;SDS011;6734;48.638;8.896;2022-12-07T01:55:32;9.37;;;5.17;;
13329;SDS011;6734;48.638;8.896;2022-12-07T01:57:58;7.83;;;5.07;;
13329;SDS011;6734;48.638;8.896;2022-12-07T02:00:24;7.47;;;4.90;;
13329;SDS011;6734;48.638;8.896;2022-12-07T02:02:51;8.17;;;5.63;;
13329;SDS011;6734;48.638;8.896;2022-12-07T02:05:40;8.70;;;5.13;;
13329;SDS011;6734;48.638;8.896;2022-12-07T02:08:06;9.70;;;6.13;;
13329;SDS011;6734;48.638;8.896;2022-12-07T02:10:33;11.73;;;6.93;;
13329;SDS011;6734;48.638;8.896;2022-12-07T02:13:03;12.47;;;6.80;;
13329;SDS011;6734;48.638;8.896;2022-12-07T02:18:33;10.97;;;6.63;;
13329;SDS011;6734;48.638;8.896;2022-12-07T02:21:07;10.87;;;7.23;;
13329;SDS011;6734;48.638;8.896;2022-12-07T02:27:06;11.77;;;6.73;;
13329;SDS011;6734;48.638;8.896;2022-12-07T02:37:36;9.43;;;5.60;;
13329;SDS011;6734;48.638;8.896;2022-12-07T02:40:10;12.60;;;7.13;;
13329;SDS011;6734;48.638;8.896;2022-12-07T02:42:51;10.83;;;6.50;;
13329;SDS011;6734;48.638;8.896;2022-12-07T02:45:20;10.07;;;5.93;;
13329;SDS011;6734;48.638;8.896;2022-12-07T02:47:48;9.90;;;6.23;;
13329;SDS011;6734;48.638;8.896;2022-12-07T02:50:20;11.20;;;6.33;;
13329;SDS011;6734;48.638;8.896;2022-12-07T02:52:46;11.07;;;6.00;;
13329;SDS011;6734;48.638;8.896;2022-12-07T02:55:12;11.90;;;6.50;;
13329;SDS011;6734;48.638;8.896;2022-12-07T02:57:43;9.97;;;5.77;;
13329;SDS011;6734;48.638;8.896;2022-12-07T03:00:11;10.70;;;6.27;;
13329;SDS011;6734;48.638;8.896;2022-12-07T03:13:07;13.90;;;7.07;;
13329;SDS011;6734;48.638;8.896;2022-12-07T03:15:37;13.03;;;7.37;;
13329;SDS011;6734;48.638;8.896;2022-12-07T03:18:16;11.83;;;7.27;;
13329;SDS011;6734;48.638;8.896;2022-12-07T03:20:44;13.30;;;8.20;;
13329;SDS011;6734;48.638;8.896;2022-12-07T03:23:13;13.50;;;7.97;;
13329;SDS011;6734;48.638;8.896;2022-12-07T03:25:41;13.90;;;7.10;;
13329;SDS011;6734;48.638;8.896;2022-12-07T03:28:12;12.27;;;6.97;;
13329;SDS011;6734;48.638;8.896;2022-12-07T03:30:47;13.60;;;7.27;;
13329;SDS011;6734;48.638;8.896;2022-12-07T03:33:19;16.63;;;8.80;;
13329;SDS011;6734;48.638;8.896;2022-12-07T03:36:01;14.03;;;8.30;;
13329;SDS011;6734;48.638;8.896;2022-12-07T03:38:37;13.87;;;7.70;;
13329;SDS011;6734;48.638;8.896;2022-12-07T03:41:08;15.43;;;8.17;;
13329;SDS011;6734;48.638;8.896;2022-12-07T03:43:36;14.47;;;8.67;;
13329;SDS011;6734;48.638;8.896;2022-12-07T03:49:02;11.67;;;7.30;;
13329;SDS011;6734;48.638;8.896;2022-12-07T03:54:21;11.97;;;7.40;;
13329;SDS011;6734;48.638;8.896;2022-12-07T03:56:50;14.77;;;7.77;;
13329;SDS011;6734;48.638;8.896;2022-12-07T03:59:18;13.47;;;7.00;;
13329;SDS011;6734;48.638;8.896;2022-12-07T04:01:45;13.40;;;7.97;;
13329;SDS011;6734;48.638;8.896;2022-12-07T04:04:11;13.33;;;8.00;;
13329;SDS011;6734;48.638;8.896;2022-12-07T04:06:37;19.27;;;9.40;;
13329;SDS011;6734;48.638;8.896;2022-12-07T04:09:03;16.33;;;9.00;;
13329;SDS011;6734;48.638;8.896;2022-12-07T04:11:29;17.10;;;8.70;;
13329;SDS011;6734;48.638;8.896;2022-12-07T04:13:55;15.97;;;8.27;;
13329;SDS011;6734;48.638;8.896;2022-12-07T04:16:39;16.63;;;8.37;;
13329;SDS011;6734;48.638;8.896;2022-12-07T04:19:04;14.10;;;8.87;;
13329;SDS011;6734;48.638;8.896;2022-12-07T04:21:30;14.93;;;8.57;;
13329;SDS011;6734;48.638;8.896;2022-12-07T04:23:56;13.77;;;7.90;;
13329;SDS011;6734;48.638;8.896;2022-12-07T04:26:21;15.63;;;8.40;;
13329;SDS011;6734;48.638;8.896;2022-12-07T04:28:47;15.13;;;8.97;;
13329;SDS011;6734;48.638;8.896;2022-12-07T04:31:13;17.17;;;8.80;;
13329;SDS011;6734;48.638;8.896;2022-12-07T04:33:38;17.07;;;8.60;;
13329;SDS011;6734;48.638;8.896;2022-12-07T04:36:05;16.13;;;8.43;;
13329;SDS011;6734;48.638;8.896;2022-12-07T04:38:30;12.77;;;7.20;;
13329;SDS011;6734;48.638;8.896;2022-12-07T04:40:56;16.47;;;8.67;;
13329;SDS011;6734;48.638;8.896;2022-12-07T04:43:22;19.13;;;9.80;;
13329;SDS011;6734;48.638;8.896;2022-12-07T04:45:47;15.33;;;9.17;;
13329;SDS011;6734;48.638;8.896;2022-12-07T04:48:13;14.30;;;8.67;;
13329;SDS011;6734;48.638;8.896;2022-12-07T04:50:39;15.60;;;8.63;;
13329;SDS011;6734;48.638;8.896;2022-12-07T04:53:05;16.23;;;8.67;;
13329;SDS011;6734;48.638;8.896;2022-12-07T04:55:31;16.53;;;8.60;;
13329;SDS011;6734;48.638;8.896;2022-12-07T04:57:56;16.77;;;9.10;;
13329;SDS011;6734;48.638;8.896;2022-12-07T05:00:22;14.63;;;8.30;;
13329;SDS011;6734;48.638;8.896;2022-12-07T05:02:48;14.47;;;8.27;;
13329;SDS011;6734;48.638;8.896;2022-12-07T05:05:13;16.93;;;8.77;;
13329;SDS011;6734;48.638;8.896;2022-12-07T05:07:39;16.30;;;8.70;;
13329;SDS011;6734;48.638;8.896;2022-12-07T05:10:05;14.37;;;8.57;;
13329;SDS011;6734;48.638;8.896;2022-12-07T05:12:31;16.10;;;9.23;;
13329;SDS011;6734;48.638;8.896;2022-12-07T05:14:56;17.90;;;9.13;;
13329;SDS011;6734;48.638;8.896;2022-12-07T05:17:22;16.00;;;9.43;;
13329;SDS011;6734;48.638;8.896;2022-12-07T05:19:47;15.57;;;8.80;;
13329;SDS011;6734;48.638;8.896;2022-12-07T05:22:13;18.87;;;9.93;;
13329;SDS011;6734;48.638;8.896;2022-12-07T05:24:40;24.53;;;13.33;;
13329;SDS011;6734;48.638;8.896;2022-12-07T05:27:05;22.73;;;12.90;;
13329;SDS011;6734;48.638;8.896;2022-12-07T05:29:31;35.23;;;18.00;;
13329;SDS011;6734;48.638;8.896;2022-12-07T05:31:57;35.87;;;19.27;;
13329;SDS011;6734;48.638;8.896;2022-12-07T05:34:23;24.70;;;12.80;;
13329;SDS011;6734;48.638;8.896;2022-12-07T05:36:48;23.53;;;11.67;;
13329;SDS011;6734;48.638;8.896;2022-12-07T05:39:15;18.63;;;10.80;;
13329;SDS011;6734;48.638;8.896;2022-12-07T05:41:41;22.33;;;11.27;;
13329;SDS011;6734;48.638;8.896;2022-12-07T05:44:26;19.93;;;10.47;;
13329;SDS011;6734;48.638;8.896;2022-12-07T05:46:52;20.03;;;10.23;;
13329;SDS011;6734;48.638;8.896;2022-12-07T05:49:18;25.03;;;11.37;;
13329;SDS011;6734;48.638;8.896;2022-12-07T05:51:44;22.13;;;11.27;;
13329;SDS011;6734;48.638;8.896;2022-12-07T05:54:10;24.30;;;12.73;;
13329;SDS011;6734;48.638;8.896;2022-12-07T05:56:36;21.10;;;11.50;;
13329;SDS011;6734;48.638;8.896;2022-12-07T05:59:02;19.00;;;10.23;;
13329;SDS011;6734;48.638;8.896;2022-12-07T06:01:46;26.70;;;15.23;;
13329;SDS011;6734;48.638;8.896;2022-12-07T06:04:12;19.03;;;10.27;;
13329;SDS011;6734;48.638;8.896;2022-12-07T06:06:38;21.50;;;10.97;;
13329;SDS011;6734;48.638;8.896;2022-12-07T06:09:03;24.80;;;11.57;;
13329;SDS011;6734;48.638;8.896;2022-12-07T06:11:29;26.30;;;12.13;;
13329;SDS011;6734;48.638;8.896;2022-12-07T06:14:14;28.63;;;12.87;;
13329;SDS011;6734;48.638;8.896;2022-12-07T06:16:39;24.63;;;12.33;;
13329;SDS011;6734;48.638;8.896;2022-12-07T06:19:05;21.53;;;10.47;;
13329;SDS011;6734;48.638;8.896;2022-12-07T06:21:31;29.60;;;14.07;;
13329;SDS011;6734;48.638;8.896;2022-12-07T06:23:57;26.97;;;13.33;;
13329;SDS011;6734;48.638;8.896;2022-12-07T06:26:22;32.83;;;15.10;;
13329;SDS011;6734;48.638;8.896;2022-12-07T06:28:48;38.10;;;14.37;;
13329;SDS011;6734;48.638;8.896;2022-12-07T06:31:14;34.13;;;14.83;;
13329;SDS011;6734;48.638;8.896;2022-12-07T06:33:40;31.10;;;14.97;;
13329;SDS011;6734;48.638;8.896;2022-12-07T06:36:06;51.40;;;15.23;;
13329;SDS011;6734;48.638;8.896;2022-12-07T06:38:32;48.27;;;17.40;;
13329;SDS011;6734;48.638;8.896;2022-12-07T06:40:58;45.07;;;16.07;;
13329;SDS011;6734;48.638;8.896;2022-12-07T06:43:24;51.70;;;16.10;;
13329;SDS011;6734;48.638;8.896;2022-12-07T06:45:50;65.60;;;17.50;;
13329;SDS011;6734;48.638;8.896;2022-12-07T06:48:16;57.90;;;16.00;;
13329;SDS011;6734;48.638;8.896;2022-12-07T06:50:44;44.07;;;15.20;;
13329;SDS011;6734;48.638;8.896;2022-12-07T06:53:10;66.07;;;16.27;;
13329;SDS011;6734;48.638;8.896;2022-12-07T06:55:36;80.30;;;18.57;;
13329;SDS011;6734;48.638;8.896;2022-12-07T06:58:01;88.80;;;15.90;;
13329;SDS011;6734;48.638;8.896;2022-12-07T07:00:27;68.10;;;16.33;;
13329;SDS011;6734;48.638;8.896;2022-12-07T07:02:53;56.87;;;16.23;;
13329;SDS011;6734;48.638;8.896;2022-12-07T07:05:21;38.60;;;15.57;;
13329;SDS011;6734;48.638;8.896;2022-12-07T07:07:47;58.17;;;17.57;;
13329;SDS011;6734;48.638;8.896;2022-12-07T07:10:16;76.13;;;15.80;;
13329;SDS011;6734;48.638;8.896;2022-12-07T07:12:41;55.73;;;15.67;;
13329;SDS011;6734;48.638;8.896;2022-12-07T07:15:07;38.43;;;15.97;;
13329;SDS011;6734;48.638;8.896;2022-12-07T07:17:33;35.53;;;14.07;;
13329;SDS011;6734;48.638;8.896;2022-12-07T07:19:58;34.67;;;15.17;;
13329;SDS011;6734;48.638;8.896;2022-12-07T07:22:24;32.57;;;14.83;;
13329;SDS011;6734;48.638;8.896;2022-12-07T07:24:50;33.40;;;15.10;;
13329;SDS011;6734;48.638;8.896;2022-12-07T07:27:16;29.00;;;14.30;;
13329;SDS011;6734;48.638;8.896;2022-12-07T07:29:41;26.70;;;12.87;;
13329;SDS011;6734;48.638;8.896;2022-12-07T07:32:07;27.97;;;12.37;;
13329;SDS011;6734;48.638;8.896;2022-12-07T07:34:33;24.97;;;11.07;;
13329;SDS011;6734;48.638;8.896;2022-12-07T07:36:58;24.80;;;11.20;;
13329;SDS011;6734;48.638;8.896;2022-12-07T07:39:24;27.70;;;15.67;;
13329;SDS011;6734;48.638;8.896;2022-12-07T07:41:50;26.97;;;13.67;;
13329;SDS011;6734;48.638;8.896;2022-12-07T07:44:16;23.50;;;11.80;;
13329;SDS011;6734;48.638;8.896;2022-12-07T07:46:42;22.57;;;11.67;;
13329;SDS011;6734;48.638;8.896;2022-12-07T07:49:08;24.00;;;11.27;;
13329;SDS011;6734;48.638;8.896;2022-12-07T07:51:35;24.33;;;11.63;;
13329;SDS011;6734;48.638;8.896;2022-12-07T07:54:01;24.67;;;10.90;;
13329;SDS011;6734;48.638;8.896;2022-12-07T07:56:27;23.00;;;11.60;;
13329;SDS011;6734;48.638;8.896;2022-12-07T07:58:53;22.03;;;10.77;;
13329;SDS011;6734;48.638;8.896;2022-12-07T08:01:19;21.33;;;10.77;;
13329;SDS011;6734;48.638;8.896;2022-12-07T08:03:48;18.83;;;9.50;;
13329;SDS011;6734;48.638;8.896;2022-12-07T08:06:18;19.30;;;9.97;;
13329;SDS011;6734;48.638;8.896;2022-12-07T08:08:44;14.83;;;8.37;;
13329;SDS011;6734;48.638;8.896;2022-12-07T08:11:09;15.30;;;8.57;;
13329;SDS011;6734;48.638;8.896;2022-12-07T08:13:35;12.57;;;7.00;;
13329;SDS011;6734;48.638;8.896;2022-12-07T08:16:05;14.50;;;7.57;;
13329;SDS011;6734;48.638;8.896;2022-12-07T08:18:34;15.80;;;7.43;;
13329;SDS011;6734;48.638;8.896;2022-12-07T08:21:04;13.37;;;7.17;;
13329;SDS011;6734;48.638;8.896;2022-12-07T08:23:31;12.17;;;8.00;;
13329;SDS011;6734;48.638;8.896;2022-12-07T08:26:03;12.37;;;8.07;;
13329;SDS011;6734;48.638;8.896;2022-12-07T08:28:29;12.60;;;7.07;;
13329;SDS011;6734;48.638;8.896;2022-12-07T08:31:02;12.93;;;7.87;;
13329;SDS011;6734;48.638;8.896;2022-12-07T08:33:29;13.33;;;7.17;;
13329;SDS011;6734;48.638;8.896;2022-12-07T08:35:55;13.87;;;6.63;;
13329;SDS011;6734;48.638;8.896;2022-12-07T08:38:35;10.67;;;6.70;;
13329;SDS011;6734;48.638;8.896;2022-12-07T08:41:02;14.87;;;8.03;;
13329;SDS011;6734;48.638;8.896;2022-12-07T08:43:28;13.03;;;7.73;;
13329;SDS011;6734;48.638;8.896;2022-12-07T08:46:09;9.80;;;6.00;;
13329;SDS011;6734;48.638;8.896;2022-12-07T08:48:57;9.87;;;6.07;;
13329;SDS011;6734;48.638;8.896;2022-12-07T08:51:27;9.63;;;5.83;;
13329;SDS011;6734;48.638;8.896;2022-12-07T08:53:53;9.57;;;5.80;;
13329;SDS011;6734;48.638;8.896;2022-12-07T08:56:21;9.27;;;5.67;;
13329;SDS011;6734;48.638;8.896;2022-12-07T08:58:47;9.10;;;6.23;;
13329;SDS011;6734;48.638;8.896;2022-12-07T09:01:13;10.50;;;5.87;;
13329;SDS011;6734;48.638;8.896;2022-12-07T09:03:39;10.53;;;6.10;;
13329;SDS011;6734;48.638;8.896;2022-12-07T09:06:05;8.30;;;6.03;;
13329;SDS011;6734;48.638;8.896;2022-12-07T09:08:33;10.83;;;6.33;;
13329;SDS011;6734;48.638;8.896;2022-12-07T09:11:07;11.63;;;5.93;;
13329;SDS011;6734;48.638;8.896;2022-12-07T09:13:33;9.47;;;5.33;;
13329;SDS011;6734;48.638;8.896;2022-12-07T09:15:59;11.83;;;6.90;;
13329;SDS011;6734;48.638;8.896;2022-12-07T09:18:24;13.27;;;7.70;;
13329;SDS011;6734;48.638;8.896;2022-12-07T09:20:50;11.03;;;6.67;;
13329;SDS011;6734;48.638;8.896;2022-12-07T09:23:16;8.40;;;5.90;;
13329;SDS011;6734;48.638;8.896;2022-12-07T09:25:42;10.53;;;6.13;;
13329;SDS011;6734;48.638;8.896;2022-12-07T09:28:08;10.43;;;5.80;;
13329;SDS011;6734;48.638;8.896;2022-12-07T09:30:33;7.87;;;5.70;;
13329;SDS011;6734;48.638;8.896;2022-12-07T09:33:00;7.93;;;5.50;;
13329;SDS011;6734;48.638;8.896;2022-12-07T09:35:26;6.97;;;5.10;;
13329;SDS011;6734;48.638;8.896;2022-12-07T09:37:52;7.37;;;5.10;;
13329;SDS011;6734;48.638;8.896;2022-12-07T09:40:19;7.90;;;4.70;;
13329;SDS011;6734;48.638;8.896;2022-12-07T09:42:53;8.03;;;5.70;;
13329;SDS011;6734;48.638;8.896;2022-12-07T09:45:22;10.20;;;5.63;;
13329;SDS011;6734;48.638;8.896;2022-12-07T09:47:48;8.90;;;5.57;;
13329;SDS011;6734;48.638;8.896;2022-12-07T09:50:22;9.20;;;5.30;;
13329;SDS011;6734;48.638;8.896;2022-12-07T09:52:50;8.53;;;5.77;;
13329;SDS011;6734;48.638;8.896;2022-12-07T09:55:22;9.33;;;4.80;;
13329;SDS011;6734;48.638;8.896;2022-12-07T09:57:50;8.70;;;4.93;;
13329;SDS011;6734;48.638;8.896;2022-12-07T10:00:18;7.83;;;5.57;;
13329;SDS011;6734;48.638;8.896;2022-12-07T10:02:48;7.67;;;4.97;;
13329;SDS011;6734;48.638;8.896;2022-12-07T10:05:44;8.47;;;4.90;;
13329;SDS011;6734;48.638;8.896;2022-12-07T10:08:11;10.00;;;5.80;;
13329;SDS011;6734;48.638;8.896;2022-12-07T10:10:37;8.77;;;4.67;;
13329;SDS011;6734;48.638;8.896;2022-12-07T10:13:08;7.87;;;5.00;;
13329;SDS011;6734;48.638;8.896;2022-12-07T10:18:24;8.30;;;5.23;;
13329;SDS011;6734;48.638;8.896;2022-12-07T10:20:59;7.17;;;4.80;;
13329;SDS011;6734;48.638;8.896;2022-12-07T10:23:35;7.67;;;4.73;;
13329;SDS011;6734;48.638;8.896;2022-12-07T10:28:53;8.17;;;4.67;;
13329;SDS011;6734;48.638;8.896;2022-12-07T10:31:21;11.97;;;5.13;;
13329;SDS011;6734;48.638;8.896;2022-12-07T10:33:52;9.43;;;5.03;;
13329;SDS011;6734;48.638;8.896;2022-12-07T10:36:35;7.00;;;4.57;;
13329;SDS011;6734;48.638;8.896;2022-12-07T10:39:15;8.83;;;5.63;;
13329;SDS011;6734;48.638;8.896;2022-12-07T10:42:05;8.87;;;5.23;;
13329;SDS011;6734;48.638;8.896;2022-12-07T10:44:31;8.73;;;5.17;;
13329;SDS011;6734;48.638;8.896;2022-12-07T10:55:08;8.30;;;5.60;;
13329;SDS011;6734;48.638;8.896;2022-12-07T11:00:25;7.00;;;4.60;;
13329;SDS011;6734;48.638;8.896;2022-12-07T11:05:27;7.23;;;4.87;;
13329;SDS011;6734;48.638;8.896;2022-12-07T11:08:00;10.30;;;5.50;;
13329;SDS011;6734;48.638;8.896;2022-12-07T11:13:21;8.07;;;4.67;;
13329;SDS011;6734;48.638;8.896;2022-12-07T11:23:45;11.80;;;5.93;;
13329;SDS011;6734;48.638;8.896;2022-12-07T11:36:57;9.33;;;6.00;;
13329;SDS011;6734;48.638;8.896;2022-12-07T11:42:11;13.73;;;5.70;;
13329;SDS011;6734;48.638;8.896;2022-12-07T11:44:49;10.13;;;5.83;;
13329;SDS011;6734;48.638;8.896;2022-12-07T11:47:20;9.03;;;6.07;;
13329;SDS011;6734;48.638;8.896;2022-12-07T11:49:54;11.70;;;5.33;;
13329;SDS011;6734;48.638;8.896;2022-12-07T11:55:50;9.23;;;5.60;;
13329;SDS011;6734;48.638;8.896;2022-12-07T12:00:55;8.47;;;5.43;;
13329;SDS011;6734;48.638;8.896;2022-12-07T12:03:42;10.80;;;6.37;;
13329;SDS011;6734;48.638;8.896;2022-12-07T12:06:09;20.43;;;10.23;;
13329;SDS011;6734;48.638;8.896;2022-12-07T12:08:37;32.97;;;14.60;;
13329;SDS011;6734;48.638;8.896;2022-12-07T12:21:57;9.23;;;5.63;;
13329;SDS011;6734;48.638;8.896;2022-12-07T12:24:52;9.90;;;6.00;;
13329;SDS011;6734;48.638;8.896;2022-12-07T12:27:26;10.13;;;5.83;;
13329;SDS011;6734;48.638;8.896;2022-12-07T12:29:55;11.57;;;5.43;;
13329;SDS011;6734;48.638;8.896;2022-12-07T12:32:43;7.73;;;5.23;;
13329;SDS011;6734;48.638;8.896;2022-12-07T12:40:59;3.70;;;2.60;;
13329;SDS011;6734;48.638;8.896;2022-12-07T12:51:44;3.03;;;2.00;;
13329;SDS011;6734;48.638;8.896;2022-12-07T12:54:20;3.57;;;2.30;;
13329;SDS011;6734;48.638;8.896;2022-12-07T12:59:29;4.47;;;3.03;;
13329;SDS011;6734;48.638;8.896;2022-12-07T13:07:47;3.40;;;2.37;;
13329;SDS011;6734;48.638;8.896;2022-12-07T13:10:20;3.77;;;2.57;;
13329;SDS011;6734;48.638;8.896;2022-12-07T13:15:48;2.83;;;1.80;;
13329;SDS011;6734;48.638;8.896;2022-12-07T13:23:31;3.97;;;2.63;;
13329;SDS011;6734;48.638;8.896;2022-12-07T13:31:54;2.90;;;2.23;;
13329;SDS011;6734;48.638;8.896;2022-12-07T13:37:02;3.57;;;2.37;;
13329;SDS011;6734;48.638;8.896;2022-12-07T13:39:50;3.43;;;2.40;;
13329;SDS011;6734;48.638;8.896;2022-12-07T13:42:27;3.73;;;2.93;;
13329;SDS011;6734;48.638;8.896;2022-12-07T13:44:55;3.60;;;3.00;;
13329;SDS011;6734;48.638;8.896;2022-12-07T13:47:41;3.90;;;2.77;;
13329;SDS011;6734;48.638;8.896;2022-12-07T13:50:21;3.47;;;2.80;;
13329;SDS011;6734;48.638;8.896;2022-12-07T13:52:49;3.57;;;2.57;;
13329;SDS011;6734;48.638;8.896;2022-12-07T13:55:16;3.23;;;2.07;;
13329;SDS011;6734;48.638;8.896;2022-12-07T13:57:42;2.40;;;2.10;;
13329;SDS011;6734;48.638;8.896;2022-12-07T14:00:16;2.87;;;2.10;;
13329;SDS011;6734;48.638;8.896;2022-12-07T14:02:54;4.93;;;2.50;;
13329;SDS011;6734;48.638;8.896;2022-12-07T14:05:25;3.77;;;2.37;;
13329;SDS011;6734;48.638;8.896;2022-12-07T14:10:27;3.70;;;2.50;;
13329;SDS011;6734;48.638;8.896;2022-12-07T14:12:55;4.33;;;2.60;;
13329;SDS011;6734;48.638;8.896;2022-12-07T14:15:21;14.47;;;8.00;;
13329;SDS011;6734;48.638;8.896;2022-12-07T14:17:54;78.97;;;37.57;;
13329;SDS011;6734;48.638;8.896;2022-12-07T14:20:34;5.47;;;3.80;;
13329;SDS011;6734;48.638;8.896;2022-12-07T14:23:00;4.70;;;3.30;;
13329;SDS011;6734;48.638;8.896;2022-12-07T14:25:43;3.57;;;2.80;;
13329;SDS011;6734;48.638;8.896;2022-12-07T14:28:26;5.40;;;3.33;;
13329;SDS011;6734;48.638;8.896;2022-12-07T14:30:53;4.27;;;2.77;;
13329;SDS011;6734;48.638;8.896;2022-12-07T14:33:18;4.50;;;2.90;;
13329;SDS011;6734;48.638;8.896;2022-12-07T14:35:44;4.47;;;2.87;;
13329;SDS011;6734;48.638;8.896;2022-12-07T14:38:10;6.27;;;2.93;;
13329;SDS011;6734;48.638;8.896;2022-12-07T14:40:36;4.47;;;2.93;;
13329;SDS011;6734;48.638;8.896;2022-12-07T14:43:11;4.13;;;2.70;;
13329;SDS011;6734;48.638;8.896;2022-12-07T14:45:37;4.23;;;3.00;;
13329;SDS011;6734;48.638;8.896;2022-12-07T14:48:04;3.50;;;2.93;;
13329;SDS011;6734;48.638;8.896;2022-12-07T14:50:30;5.43;;;3.30;;
13329;SDS011;6734;48.638;8.896;2022-12-07T14:52:59;38.60;;;20.87;;
13329;SDS011;6734;48.638;8.896;2022-12-07T14:55:31;64.60;;;31.10;;
13329;SDS011;6734;48.638;8.896;2022-12-07T14:57:57;17.43;;;8.63;;
13329;SDS011;6734;48.638;8.896;2022-12-07T15:00:24;5.63;;;3.83;;
13329;SDS011;6734;48.638;8.896;2022-12-07T15:02:51;7.17;;;4.13;;
13329;SDS011;6734;48.638;8.896;2022-12-07T15:05:18;4.47;;;3.50;;
13329;SDS011;6734;48.638;8.896;2022-12-07T15:07:44;4.97;;;3.60;;
13329;SDS011;6734;48.638;8.896;2022-12-07T15:10:16;6.27;;;3.40;;
13329;SDS011;6734;48.638;8.896;2022-12-07T15:12:42;5.60;;;3.33;;
13329;SDS011;6734;48.638;8.896;2022-12-07T15:15:08;5.00;;;3.33;;
13329;SDS011;6734;48.638;8.896;2022-12-07T15:17:35;6.87;;;3.77;;
13329;SDS011;6734;48.638;8.896;2022-12-07T15:20:01;5.03;;;3.53;;
13329;SDS011;6734;48.638;8.896;2022-12-07T15:22:28;5.47;;;3.70;;
13329;SDS011;6734;48.638;8.896;2022-12-07T15:24:56;6.53;;;3.77;;
13329;SDS011;6734;48.638;8.896;2022-12-07T15:27:22;4.40;;;3.30;;
13329;SDS011;6734;48.638;8.896;2022-12-07T15:29:48;5.17;;;3.53;;
13329;SDS011;6734;48.638;8.896;2022-12-07T15:32:14;4.63;;;3.63;;
13329;SDS011;6734;48.638;8.896;2022-12-07T15:34:39;4.73;;;3.47;;
13329;SDS011;6734;48.638;8.896;2022-12-07T15:37:05;5.93;;;3.97;;
13329;SDS011;6734;48.638;8.896;2022-12-07T15:39:31;7.67;;;4.20;;
13329;SDS011;6734;48.638;8.896;2022-12-07T15:41:57;6.13;;;4.00;;
13329;SDS011;6734;48.638;8.896;2022-12-07T15:44:23;7.10;;;4.63;;
13329;SDS011;6734;48.638;8.896;2022-12-07T15:47:11;9.47;;;4.40;;
13329;SDS011;6734;48.638;8.896;2022-12-07T15:49:37;6.07;;;4.60;;
13329;SDS011;6734;48.638;8.896;2022-12-07T15:52:03;12.37;;;6.63;;
13329;SDS011;6734;48.638;8.896;2022-12-07T15:54:29;21.97;;;10.20;;
13329;SDS011;6734;48.638;8.896;2022-12-07T15:56:55;16.83;;;7.67;;
13329;SDS011;6734;48.638;8.896;2022-12-07T15:59:22;10.73;;;6.40;;
13329;SDS011;6734;48.638;8.896;2022-12-07T16:01:48;9.60;;;5.67;;
13329;SDS011;6734;48.638;8.896;2022-12-07T16:04:13;9.80;;;6.13;;
13329;SDS011;6734;48.638;8.896;2022-12-07T16:06:39;6.23;;;4.07;;
13329;SDS011;6734;48.638;8.896;2022-12-07T16:09:05;5.43;;;4.13;;
13329;SDS011;6734;48.638;8.896;2022-12-07T16:11:31;9.57;;;4.50;;
13329;SDS011;6734;48.638;8.896;2022-12-07T16:13:57;4.87;;;3.97;;
13329;SDS011;6734;48.638;8.896;2022-12-07T16:16:23;9.33;;;5.67;;
13329;SDS011;6734;48.638;8.896;2022-12-07T16:18:49;9.50;;;5.33;;
13329;SDS011;6734;48.638;8.896;2022-12-07T16:21:15;5.00;;;3.40;;
13329;SDS011;6734;48.638;8.896;2022-12-07T16:23:41;5.97;;;3.60;;
13329;SDS011;6734;48.638;8.896;2022-12-07T16:26:08;5.73;;;3.33;;
13329;SDS011;6734;48.638;8.896;2022-12-07T16:28:35;4.50;;;3.00;;
13329;SDS011;6734;48.638;8.896;2022-12-07T16:31:05;7.40;;;4.60;;
13329;SDS011;6734;48.638;8.896;2022-12-07T16:33:32;10.03;;;5.23;;
13329;SDS011;6734;48.638;8.896;2022-12-07T16:36:02;8.53;;;4.23;;
13329;SDS011;6734;48.638;8.896;2022-12-07T16:38:29;7.17;;;4.67;;
13329;SDS011;6734;48.638;8.896;2022-12-07T16:40:55;6.40;;;4.33;;
13329;SDS011;6734;48.638;8.896;2022-12-07T16:43:22;8.77;;;5.20;;
13329;SDS011;6734;48.638;8.896;2022-12-07T16:45:48;8.40;;;4.67;;
13329;SDS011;6734;48.638;8.896;2022-12-07T16:48:15;9.47;;;6.33;;
13329;SDS011;6734;48.638;8.896;2022-12-07T16:50:41;10.73;;;6.27;;
13329;SDS011;6734;48.638;8.896;2022-12-07T16:53:07;10.10;;;6.00;;
13329;SDS011;6734;48.638;8.896;2022-12-07T16:55:37;8.53;;;6.50;;
13329;SDS011;6734;48.638;8.896;2022-12-07T16:58:03;9.70;;;7.13;;
13329;SDS011;6734;48.638;8.896;2022-12-07T17:00:29;8.90;;;5.80;;
13329;SDS011;6734;48.638;8.896;2022-12-07T17:02:58;8.60;;;5.13;;
13329;SDS011;6734;48.638;8.896;2022-12-07T17:05:24;7.83;;;5.00;;
13329;SDS011;6734;48.638;8.896;2022-12-07T17:07:51;9.00;;;6.03;;
13329;SDS011;6734;48.638;8.896;2022-12-07T17:10:18;34.50;;;15.67;;
13329;SDS011;6734;48.638;8.896;2022-12-07T17:12:43;18.60;;;9.47;;